createdAt,value
2018-04-17T00:02:07.070Z,0.40
2018-04-17T00:04:35.410Z,0.30
2018-04-17T00:07:02.977Z,0.30
2018-04-17T00:09:30.554Z,0.30
2018-04-17T00:11:58.117Z,0.40
2018-04-17T00:14:26.457Z,0.30
2018-04-17T00:16:54.013Z,0.40
2018-04-17T00:19:21.610Z,0.37
2018-04-17T00:21:50.002Z,0.50
2018-04-17T00:24:18.341Z,0.33
2018-04-17T00:26:45.912Z,0.57
2018-04-17T00:29:15.002Z,0.40
2018-04-17T00:31:42.723Z,0.30
2018-04-17T00:34:10.330Z,0.33
2018-04-17T00:36:38.699Z,0.30
2018-04-17T00:39:06.286Z,0.40
2018-04-17T00:41:37.259Z,0.40
2018-04-17T00:44:06.775Z,0.40
2018-04-17T00:46:34.959Z,0.33
2018-04-17T00:49:02.621Z,0.30
2018-04-17T00:51:30.224Z,0.40
2018-04-17T00:53:57.823Z,0.40
2018-04-17T00:56:25.393Z,0.40
2018-04-17T00:58:53.053Z,0.30
2018-04-17T01:01:20.716Z,0.33
2018-04-17T01:03:48.293Z,0.50
2018-04-17T01:06:15.939Z,0.40
2018-04-17T01:08:43.546Z,0.40
2018-04-17T01:11:11.142Z,0.60
2018-04-17T01:13:39.397Z,0.30
2018-04-17T01:16:07.818Z,0.30
2018-04-17T01:18:35.408Z,0.40
2018-04-17T01:21:02.991Z,0.40
2018-04-17T01:23:30.558Z,0.50
2018-04-17T01:25:58.139Z,0.50
2018-04-17T01:28:25.756Z,0.50
2018-04-17T01:30:53.322Z,0.37
2018-04-17T01:33:20.911Z,0.20
2018-04-17T01:35:48.567Z,0.40
2018-04-17T01:38:16.141Z,0.33
2018-04-17T01:40:43.717Z,0.30
2018-04-17T01:43:12.094Z,0.30
2018-04-17T01:45:39.726Z,0.30
2018-04-17T01:48:07.360Z,0.40
2018-04-17T01:50:34.986Z,0.30
2018-04-17T01:53:02.598Z,0.37
2018-04-17T01:55:30.174Z,0.40
2018-04-17T01:57:57.822Z,0.33
2018-04-17T02:00:25.429Z,0.40
2018-04-17T02:02:53.006Z,0.30
2018-04-17T02:05:20.581Z,0.30
2018-04-17T02:07:48.206Z,0.30
2018-04-17T02:10:15.818Z,0.30
2018-04-17T02:12:43.494Z,0.30
2018-04-17T02:15:11.076Z,0.40
2018-04-17T02:17:40.290Z,0.40
2018-04-17T02:20:07.867Z,0.30
2018-04-17T02:22:35.476Z,0.40
2018-04-17T02:25:03.838Z,0.70
2018-04-17T02:27:31.422Z,0.40
2018-04-17T02:29:59.787Z,0.23
2018-04-17T02:32:28.122Z,0.40
2018-04-17T02:34:56.224Z,0.30
2018-04-17T02:37:23.811Z,0.40
2018-04-17T02:39:51.398Z,0.50
2018-04-17T02:42:18.994Z,0.30
2018-04-17T02:44:46.602Z,0.30
2018-04-17T02:47:14.177Z,0.60
2018-04-17T02:49:41.793Z,0.40
2018-04-17T02:52:10.133Z,0.30
2018-04-17T02:54:37.766Z,0.40
2018-04-17T02:57:05.360Z,0.23
2018-04-17T02:59:32.954Z,0.37
2018-04-17T03:02:00.544Z,0.30
2018-04-17T03:04:28.227Z,0.50
2018-04-17T03:06:55.809Z,0.30
2018-04-17T03:09:24.141Z,0.40
2018-04-17T03:11:51.736Z,0.40
2018-04-17T03:14:19.325Z,0.20
2018-04-17T03:16:46.923Z,0.30
2018-04-17T03:19:14.487Z,0.30
2018-04-17T03:21:42.070Z,0.40
2018-04-17T03:24:09.718Z,0.50
2018-04-17T03:26:37.301Z,0.30
2018-04-17T03:29:05.644Z,0.40
2018-04-17T03:31:33.205Z,0.37
2018-04-17T03:34:00.811Z,0.30
2018-04-17T03:36:28.388Z,0.27
2018-04-17T03:38:55.959Z,0.33
2018-04-17T03:41:23.528Z,0.37
2018-04-17T03:43:51.202Z,0.50
2018-04-17T03:46:18.781Z,0.30
2018-04-17T03:48:47.121Z,0.50
2018-04-17T03:51:14.730Z,0.40
2018-04-17T03:53:43.104Z,0.40
2018-04-17T03:56:11.466Z,0.30
2018-04-17T03:58:39.038Z,0.30
2018-04-17T04:01:07.382Z,0.30
2018-04-17T04:03:34.973Z,0.53
2018-04-17T04:06:03.302Z,0.40
2018-04-17T04:08:30.881Z,0.30
2018-04-17T04:10:58.551Z,0.30
2018-04-17T04:13:26.133Z,0.30
2018-04-17T04:15:53.733Z,0.30
2018-04-17T04:18:33.344Z,0.40
2018-04-17T04:21:12.985Z,0.30
2018-04-17T04:23:52.521Z,0.30
2018-04-17T04:26:42.010Z,0.30
2018-04-17T04:29:09.596Z,0.30
2018-04-17T04:31:37.177Z,0.40
2018-04-17T04:34:04.765Z,0.40
2018-04-17T04:36:32.367Z,0.20
2018-04-17T04:38:59.951Z,0.30
2018-04-17T04:41:27.524Z,0.37
2018-04-17T04:43:55.954Z,0.40
2018-04-17T04:46:23.573Z,0.40
2018-04-17T04:48:51.210Z,0.33
2018-04-17T04:51:19.582Z,0.30
2018-04-17T04:53:47.175Z,0.37
2018-04-17T04:56:14.754Z,0.50
2018-04-17T04:58:42.318Z,0.30
2018-04-17T05:01:09.900Z,0.30
2018-04-17T05:03:38.885Z,0.30
2018-04-17T05:06:06.610Z,0.30
2018-04-17T05:08:34.177Z,0.40
2018-04-17T05:11:01.765Z,0.53
2018-04-17T05:13:29.388Z,0.40
2018-04-17T05:15:56.964Z,0.40
2018-04-17T05:18:25.174Z,0.43
2018-04-17T05:20:54.103Z,0.37
2018-04-17T05:23:21.698Z,0.47
2018-04-17T05:25:49.262Z,0.40
2018-04-17T05:28:16.834Z,0.37
2018-04-17T05:30:44.412Z,0.40
2018-04-17T05:33:12.763Z,0.33
2018-04-17T05:35:40.342Z,0.40
2018-04-17T05:38:08.671Z,0.40
2018-04-17T05:40:36.238Z,0.30
2018-04-17T05:43:03.865Z,0.40
2018-04-17T05:45:31.436Z,0.20
2018-04-17T05:47:59.051Z,0.40
2018-04-17T05:50:27.579Z,0.43
2018-04-17T05:52:55.139Z,0.30
2018-04-17T05:55:22.706Z,0.40
2018-04-17T05:57:50.338Z,0.40
2018-04-17T06:00:17.991Z,0.30
2018-04-17T06:02:45.568Z,0.30
2018-04-17T06:05:13.169Z,0.40
2018-04-17T06:07:41.519Z,0.50
2018-04-17T06:10:09.104Z,0.20
2018-04-17T06:12:36.874Z,0.33
2018-04-17T06:15:04.455Z,0.43
2018-04-17T06:17:32.049Z,0.50
2018-04-17T06:19:59.737Z,0.40
2018-04-17T06:22:27.332Z,0.40
2018-04-17T06:24:54.907Z,0.40
2018-04-17T06:27:22.478Z,0.40
2018-04-17T06:29:50.039Z,0.37
2018-04-17T06:32:17.598Z,0.20
2018-04-17T06:34:45.178Z,0.10
2018-04-17T06:37:13.514Z,0.40
2018-04-17T06:39:41.197Z,0.30
2018-04-17T06:42:08.813Z,0.30
2018-04-17T06:44:38.159Z,0.30
2018-04-17T06:47:05.745Z,0.30
2018-04-17T06:49:33.320Z,0.37
2018-04-17T06:52:00.895Z,0.30
2018-04-17T06:54:29.234Z,0.40
2018-04-17T06:56:56.820Z,0.40
2018-04-17T06:59:25.194Z,0.40
2018-04-17T07:01:53.572Z,0.30
2018-04-17T07:04:21.170Z,0.30
2018-04-17T07:06:49.721Z,0.30
2018-04-17T07:09:17.297Z,0.30
2018-04-17T07:11:44.866Z,0.43
2018-04-17T07:14:12.435Z,0.40
2018-04-17T07:16:39.997Z,0.20
2018-04-17T07:19:07.559Z,0.20
2018-04-17T07:21:35.140Z,0.20
2018-04-17T07:24:02.707Z,0.40
2018-04-17T07:26:31.041Z,0.30
2018-04-17T07:28:58.609Z,0.33
2018-04-17T07:31:26.227Z,0.30
2018-04-17T07:34:19.018Z,0.30
2018-04-17T07:36:47.471Z,0.40
2018-04-17T07:39:15.048Z,0.37
2018-04-17T07:41:42.625Z,0.50
2018-04-17T07:44:10.215Z,0.30
2018-04-17T07:46:38.263Z,0.33
2018-04-17T07:49:06.777Z,0.40
2018-04-17T07:51:34.418Z,0.30
2018-04-17T07:54:02.050Z,0.40
2018-04-17T07:56:29.628Z,0.50
2018-04-17T07:58:58.138Z,0.50
2018-04-17T08:01:25.851Z,0.30
2018-04-17T08:03:53.451Z,0.30
2018-04-17T08:06:21.044Z,0.40
2018-04-17T08:08:48.620Z,0.40
2018-04-17T08:11:16.246Z,0.40
2018-04-17T08:13:43.816Z,0.50
2018-04-17T08:16:11.431Z,0.33
2018-04-17T08:18:39.833Z,0.40
2018-04-17T08:21:07.487Z,0.23
2018-04-17T08:23:35.122Z,0.40
2018-04-17T08:26:03.484Z,0.40
2018-04-17T08:28:31.399Z,0.30
2018-04-17T08:30:59.092Z,0.20
2018-04-17T08:33:26.671Z,0.40
2018-04-17T08:35:54.963Z,0.30
2018-04-17T08:38:23.596Z,0.30
2018-04-17T08:40:51.786Z,0.40
2018-04-17T08:43:19.651Z,0.40
2018-04-17T08:45:48.671Z,0.50
2018-04-17T08:48:16.306Z,0.50
2018-04-17T08:50:43.980Z,0.50
2018-04-17T08:53:13.414Z,0.30
2018-04-17T08:55:41.510Z,0.30
2018-04-17T08:58:10.408Z,0.50
2018-04-17T09:00:38.369Z,0.27
2018-04-17T09:03:06.869Z,0.50
2018-04-17T09:05:34.652Z,0.30
2018-04-17T09:08:02.248Z,0.50
2018-04-17T09:10:29.834Z,0.40
2018-04-17T09:12:57.409Z,0.23
2018-04-17T09:15:25.032Z,0.30
2018-04-17T09:17:52.628Z,0.30
2018-04-17T09:20:20.254Z,0.40
2018-04-17T09:22:47.917Z,0.30
2018-04-17T09:25:15.557Z,0.40
2018-04-17T09:27:43.123Z,0.40
2018-04-17T09:30:10.766Z,0.30
2018-04-17T09:32:38.677Z,0.40
2018-04-17T09:35:07.198Z,0.50
2018-04-17T09:37:35.547Z,0.40
2018-04-17T09:40:03.194Z,0.50
2018-04-17T09:42:30.860Z,0.40
2018-04-17T09:44:58.460Z,0.30
2018-04-17T09:47:26.808Z,0.27
2018-04-17T09:49:54.456Z,0.40
2018-04-17T09:52:22.047Z,0.40
2018-04-17T09:54:50.425Z,0.23
2018-04-17T09:57:18.800Z,0.40
2018-04-17T09:59:47.238Z,0.30
2018-04-17T10:02:14.846Z,0.30
2018-04-17T10:04:43.461Z,0.40
2018-04-17T10:07:11.985Z,0.40
2018-04-17T10:09:40.471Z,0.40
2018-04-17T10:12:08.087Z,0.30
2018-04-17T10:14:35.739Z,0.37
2018-04-17T10:17:03.405Z,0.50
2018-04-17T10:19:30.999Z,0.30
2018-04-17T10:21:58.634Z,0.33
2018-04-17T10:24:27.985Z,0.30
2018-04-17T10:26:57.075Z,0.40
2018-04-17T10:29:25.959Z,0.30
2018-04-17T10:31:54.845Z,0.40
2018-04-17T10:34:22.530Z,0.60
2018-04-17T10:36:50.128Z,0.30
2018-04-17T10:39:17.729Z,0.60
2018-04-17T10:41:45.314Z,0.60
2018-04-17T10:44:13.210Z,0.60
2018-04-17T10:46:40.913Z,0.60
2018-04-17T10:49:09.287Z,0.70
2018-04-17T10:51:37.852Z,0.60
2018-04-17T10:54:05.679Z,0.40
2018-04-17T10:56:33.278Z,0.63
2018-04-17T10:59:00.871Z,0.53
2018-04-17T11:01:28.469Z,0.47
2018-04-17T11:03:56.111Z,0.50
2018-04-17T11:06:23.683Z,0.53
2018-04-17T11:08:51.246Z,0.60
2018-04-17T11:11:18.858Z,0.50
2018-04-17T11:13:46.426Z,0.70
2018-04-17T11:16:14.017Z,0.40
2018-04-17T11:18:41.594Z,0.60
2018-04-17T11:21:10.734Z,0.50
2018-04-17T11:23:38.448Z,0.40
2018-04-17T11:26:06.036Z,0.60
2018-04-17T11:28:33.600Z,0.60
2018-04-17T11:31:01.196Z,0.60
2018-04-17T11:33:28.757Z,0.50
2018-04-17T11:35:56.427Z,0.60
2018-04-17T11:38:23.998Z,0.50
2018-04-17T11:40:51.582Z,0.80
2018-04-17T11:43:19.914Z,0.40
2018-04-17T11:45:47.496Z,0.70
2018-04-17T11:48:15.131Z,0.60
2018-04-17T11:50:42.845Z,0.60
2018-04-17T11:53:10.440Z,0.40
2018-04-17T11:55:38.098Z,0.70
2018-04-17T11:58:05.691Z,0.60
2018-04-17T12:00:33.331Z,0.60
2018-04-17T12:03:00.944Z,0.60
2018-04-17T12:05:29.310Z,0.73
2018-04-17T12:07:57.647Z,0.40
2018-04-17T12:10:25.267Z,0.70
2018-04-17T12:12:52.921Z,0.60
2018-04-17T12:15:20.515Z,0.60
2018-04-17T12:17:48.078Z,0.63
2018-04-17T12:20:15.676Z,0.60
2018-04-17T12:22:44.010Z,0.80
2018-04-17T12:25:11.613Z,0.80
2018-04-17T12:27:39.969Z,0.70
2018-04-17T12:30:08.346Z,0.43
2018-04-17T12:32:35.910Z,0.67
2018-04-17T12:35:03.519Z,0.50
2018-04-17T12:37:31.113Z,1.00
2018-04-17T12:39:59.199Z,0.73
2018-04-17T12:42:26.979Z,0.60
2018-04-17T12:44:54.696Z,0.80
2018-04-17T12:47:22.266Z,0.70
2018-04-17T12:49:49.835Z,0.90
2018-04-17T12:52:18.171Z,0.60
2018-04-17T12:54:45.784Z,0.73
2018-04-17T12:57:14.117Z,0.80
2018-04-17T12:59:41.706Z,0.53
2018-04-17T13:02:09.364Z,0.80
2018-04-17T13:04:37.807Z,0.60
2018-04-17T13:07:05.385Z,1.10
2018-04-17T13:09:32.946Z,1.13
2018-04-17T13:12:00.510Z,1.00
2018-04-17T13:14:28.074Z,1.00
2018-04-17T13:16:55.635Z,1.00
2018-04-17T13:19:23.225Z,1.00
2018-04-17T13:21:50.820Z,0.90
2018-04-17T13:24:21.197Z,1.30
2018-04-17T13:26:49.542Z,1.00
2018-04-17T13:29:17.110Z,0.93
2018-04-17T13:31:44.686Z,1.30
2018-04-17T13:34:12.250Z,1.33
2018-04-17T13:36:40.577Z,1.10
2018-04-17T13:39:08.346Z,1.00
2018-04-17T13:41:36.097Z,1.03
2018-04-17T13:44:03.684Z,0.90
2018-04-17T13:46:31.258Z,0.90
2018-04-17T13:48:59.614Z,1.40
2018-04-17T13:51:27.977Z,1.00
2018-04-17T13:53:55.581Z,1.00
2018-04-17T13:56:23.181Z,1.20
2018-04-17T13:58:50.962Z,1.00
2018-04-17T14:01:18.523Z,1.00
2018-04-17T14:03:46.122Z,0.97
2018-04-17T14:06:13.698Z,1.07
2018-04-17T14:08:41.410Z,0.93
2018-04-17T14:11:09.020Z,0.93
2018-04-17T14:13:36.598Z,1.10
2018-04-17T14:16:04.357Z,0.90
2018-04-17T14:18:31.942Z,1.40
2018-04-17T14:20:59.516Z,0.90
2018-04-17T14:23:27.866Z,1.00
2018-04-17T14:25:55.433Z,1.03
2018-04-17T14:28:23.045Z,1.20
2018-04-17T14:30:50.614Z,0.97
2018-04-17T14:33:18.255Z,1.10
2018-04-17T14:35:45.818Z,1.03
2018-04-17T14:38:13.403Z,1.37
2018-04-17T14:40:40.985Z,1.13
2018-04-17T14:43:08.614Z,1.13
2018-04-17T14:45:36.178Z,1.00
2018-04-17T14:48:03.752Z,0.73
2018-04-17T14:50:31.319Z,0.90
2018-04-17T14:52:58.890Z,0.90
2018-04-17T14:55:26.483Z,1.20
2018-04-17T14:57:54.054Z,0.73
2018-04-17T15:00:21.619Z,1.10
2018-04-17T15:02:49.195Z,0.80
2018-04-17T15:05:16.773Z,0.83
2018-04-17T15:07:44.340Z,1.10
2018-04-17T15:10:12.706Z,0.90
2018-04-17T15:12:40.283Z,0.90
2018-04-17T15:15:08.612Z,1.20
2018-04-17T15:17:36.193Z,0.80
2018-04-17T15:20:03.777Z,0.97
2018-04-17T15:22:32.111Z,0.90
2018-04-17T15:24:59.699Z,0.80
2018-04-17T15:27:27.276Z,0.97
2018-04-17T15:29:55.622Z,0.70
2018-04-17T15:32:23.187Z,0.90
2018-04-17T15:34:50.761Z,0.97
2018-04-17T15:37:19.102Z,0.97
2018-04-17T15:39:46.690Z,1.10
2018-04-17T15:42:14.286Z,1.00
2018-04-17T15:44:41.872Z,1.23
2018-04-17T15:47:09.613Z,0.83
2018-04-17T15:49:37.303Z,0.90
2018-04-17T15:52:04.867Z,1.10
2018-04-17T15:54:32.614Z,1.07
2018-04-17T15:57:00.173Z,0.93
2018-04-17T15:59:27.754Z,1.03
2018-04-17T16:01:55.347Z,1.20
2018-04-17T16:04:23.049Z,0.97
2018-04-17T16:06:50.654Z,1.17
2018-04-17T16:09:19.063Z,1.07
2018-04-17T16:11:46.664Z,1.07
2018-04-17T16:14:20.122Z,0.90
2018-04-17T16:16:47.709Z,0.77
2018-04-17T16:19:15.310Z,0.87
2018-04-17T16:21:43.102Z,0.90
2018-04-17T16:24:12.109Z,1.13
2018-04-17T16:26:40.576Z,1.13
2018-04-17T16:29:08.215Z,1.20
2018-04-17T16:31:36.609Z,0.90
2018-04-17T16:34:04.674Z,0.90
2018-04-17T16:36:32.727Z,0.80
2018-04-17T16:39:00.282Z,1.20
2018-04-17T16:41:28.478Z,1.10
2018-04-17T16:43:56.979Z,1.00
2018-04-17T16:46:25.422Z,1.00
2018-04-17T16:48:53.411Z,1.30
2018-04-17T16:51:21.353Z,0.93
2018-04-17T16:53:50.268Z,1.00
2018-04-17T16:56:21.920Z,1.03
2018-04-17T16:58:49.575Z,1.50
2018-04-17T17:01:17.219Z,1.40
2018-04-17T17:03:44.819Z,1.13
2018-04-17T17:06:12.419Z,1.53
2018-04-17T17:08:40.796Z,0.97
2018-04-17T17:11:08.394Z,1.10
2018-04-17T17:13:35.970Z,1.10
2018-04-17T17:16:04.366Z,1.27
2018-04-17T17:18:31.956Z,1.00
2018-04-17T17:20:59.540Z,1.40
2018-04-17T17:23:27.106Z,0.93
2018-04-17T17:25:54.671Z,1.27
2018-04-17T17:28:22.238Z,1.23
2018-04-17T17:30:49.902Z,1.10
2018-04-17T17:33:17.480Z,1.07
2018-04-17T17:35:45.060Z,1.13
2018-04-17T17:38:13.696Z,0.93
2018-04-17T17:40:41.492Z,1.07
2018-04-17T17:43:09.873Z,1.13
2018-04-17T17:45:38.317Z,1.07
2018-04-17T17:48:05.963Z,1.40
2018-04-17T17:50:33.561Z,1.37
2018-04-17T17:53:01.900Z,1.13
2018-04-17T17:55:29.504Z,0.90
2018-04-17T17:57:59.663Z,1.10
2018-04-17T18:00:30.148Z,1.03
2018-04-17T18:02:58.776Z,1.13
2018-04-17T18:05:27.180Z,0.97
2018-04-17T18:07:55.017Z,1.03
2018-04-17T18:10:22.591Z,1.07
2018-04-17T18:12:50.288Z,1.00
2018-04-17T18:15:18.631Z,1.20
2018-04-17T18:17:46.250Z,1.00
2018-04-17T18:20:13.857Z,0.90
2018-04-17T18:22:41.486Z,0.90
2018-04-17T18:25:09.080Z,1.10
2018-04-17T18:27:36.847Z,0.93
2018-04-17T18:30:04.421Z,1.03
2018-04-17T18:32:32.035Z,1.10
2018-04-17T18:34:59.615Z,1.00
2018-04-17T18:37:27.208Z,1.10
2018-04-17T18:39:55.924Z,1.13
2018-04-17T18:42:23.543Z,1.00
2018-04-17T18:44:51.883Z,1.37
2018-04-17T18:47:19.445Z,1.20
2018-04-17T18:49:47.031Z,1.30
2018-04-17T18:52:15.388Z,1.10
2018-04-17T18:54:43.004Z,0.80
2018-04-17T18:57:10.578Z,1.20
2018-04-17T18:59:38.234Z,1.10
2018-04-17T19:02:05.811Z,0.80
2018-04-17T19:04:33.406Z,1.00
2018-04-17T19:07:01.805Z,1.20
2018-04-17T19:09:30.392Z,1.07
2018-04-17T19:11:58.006Z,1.10
2018-04-17T19:14:25.611Z,0.80
2018-04-17T19:16:53.165Z,0.73
2018-04-17T19:19:20.741Z,0.80
2018-04-17T19:21:48.604Z,1.00
2018-04-17T19:24:16.194Z,0.97
2018-04-17T19:26:43.843Z,1.00
2018-04-17T19:29:11.423Z,1.07
2018-04-17T19:31:39.178Z,0.90
2018-04-17T19:34:06.926Z,1.20
2018-04-17T19:36:34.683Z,0.90
2018-04-17T19:39:03.086Z,1.10
2018-04-17T19:41:30.692Z,1.00
2018-04-17T19:43:59.323Z,1.00
2018-04-17T19:46:26.886Z,1.20
2018-04-17T19:48:55.573Z,0.90
2018-04-17T19:51:23.946Z,0.90
2018-04-17T19:53:51.524Z,0.90
2018-04-17T19:56:19.121Z,0.80
2018-04-17T19:58:46.702Z,1.27
2018-04-17T20:01:14.324Z,0.97
2018-04-17T20:03:41.897Z,0.73
2018-04-17T20:06:09.521Z,1.10
2018-04-17T20:08:37.146Z,1.00
2018-04-17T20:11:04.722Z,1.00
2018-04-17T20:13:32.357Z,0.90
2018-04-17T20:16:00.713Z,1.10
2018-04-17T20:18:28.313Z,0.83
2018-04-17T20:20:56.133Z,1.10
2018-04-17T20:23:23.797Z,1.00
2018-04-17T20:25:51.417Z,0.93
2018-04-17T20:28:20.136Z,1.00
2018-04-17T20:30:47.742Z,0.90
2018-04-17T20:33:15.460Z,0.87
2018-04-17T20:35:43.893Z,0.80
2018-04-17T20:38:12.365Z,0.97
2018-04-17T20:40:41.713Z,1.00
2018-04-17T20:43:09.327Z,0.93
2018-04-17T20:45:37.852Z,0.80
2018-04-17T20:48:05.415Z,1.00
2018-04-17T20:50:32.995Z,1.13
2018-04-17T20:53:00.560Z,1.00
2018-04-17T20:55:28.137Z,0.87
2018-04-17T20:57:57.576Z,0.90
2018-04-17T21:00:27.027Z,0.90
2018-04-17T21:02:56.334Z,0.90
2018-04-17T21:05:25.426Z,0.70
2018-04-17T21:07:53.571Z,1.00
2018-04-17T21:10:23.392Z,0.70
2018-04-17T21:12:52.021Z,1.03
2018-04-17T21:15:21.304Z,0.77
2018-04-17T21:17:49.845Z,0.80
2018-04-17T21:20:18.239Z,0.90
2018-04-17T21:22:45.802Z,0.73
2018-04-17T21:25:13.392Z,1.00
2018-04-17T21:27:40.958Z,1.20
2018-04-17T21:30:08.545Z,0.73
2018-04-17T21:32:36.122Z,0.90
2018-04-17T21:35:03.779Z,0.70
2018-04-17T21:37:31.923Z,0.97
2018-04-17T21:39:59.510Z,0.80
2018-04-17T21:42:27.077Z,0.70
2018-04-17T21:44:54.645Z,0.90
2018-04-17T21:47:22.268Z,0.83
2018-04-17T21:49:50.122Z,0.70
2018-04-17T21:52:17.986Z,0.80
2018-04-17T21:54:46.043Z,0.80
2018-04-17T21:57:15.026Z,0.80
2018-04-17T21:59:42.625Z,0.93
2018-04-17T22:02:10.193Z,1.00
2018-04-17T22:04:38.119Z,0.93
2018-04-17T22:07:05.685Z,0.80
2018-04-17T22:09:33.263Z,1.00
2018-04-17T22:12:00.849Z,0.90
2018-04-17T22:14:29.199Z,1.07
2018-04-17T22:16:56.804Z,0.80
2018-04-17T22:19:24.435Z,1.00
2018-04-17T22:21:52.043Z,0.60
2018-04-17T22:24:19.621Z,0.93
2018-04-17T22:26:48.040Z,0.80
2018-04-17T22:29:15.617Z,0.83
2018-04-17T22:31:43.998Z,0.90
2018-04-17T22:34:11.598Z,0.80
2018-04-17T22:36:39.415Z,0.97
2018-04-17T22:39:07.753Z,1.00
2018-04-17T22:41:36.736Z,1.00
2018-04-17T22:44:05.482Z,0.97
2018-04-17T22:46:33.942Z,0.83
2018-04-17T22:49:02.299Z,0.80
2018-04-17T22:51:29.892Z,0.80
2018-04-17T22:53:57.471Z,0.80
2018-04-17T22:56:25.042Z,1.00
2018-04-17T22:58:52.619Z,0.90
2018-04-17T23:01:20.179Z,0.80
2018-04-17T23:03:48.075Z,1.00
2018-04-17T23:06:16.407Z,0.67
2018-04-17T23:08:44.484Z,1.00
2018-04-17T23:11:13.047Z,0.77
2018-04-17T23:13:40.646Z,0.93
2018-04-17T23:16:09.700Z,0.93
2018-04-17T23:18:38.108Z,0.90
2018-04-17T23:21:06.253Z,0.80
2018-04-17T23:23:34.027Z,1.00
2018-04-17T23:26:03.020Z,0.80
2018-04-17T23:28:31.494Z,0.70
2018-04-17T23:30:59.459Z,0.70
2018-04-17T23:33:27.947Z,0.80
2018-04-17T23:35:55.520Z,0.67
2018-04-17T23:38:23.147Z,0.87
2018-04-17T23:40:51.265Z,0.50
2018-04-17T23:43:19.946Z,1.07
2018-04-17T23:45:48.128Z,0.70
2018-04-17T23:48:16.361Z,0.70
2018-04-17T23:50:44.821Z,0.70
2018-04-17T23:53:14.629Z,0.90
2018-04-17T23:55:43.137Z,0.70
2018-04-17T23:58:11.269Z,0.80
